createdAt,value
2023-01-01T00:00:27.865Z,51.06
2023-01-01T00:01:31.259Z,51.03
2023-01-01T00:02:36.933Z,50.91
2023-01-01T00:03:40.768Z,50.97
2023-01-01T00:04:53.262Z,51.02
2023-01-01T00:05:55.490Z,51.14
2023-01-01T00:07:00.616Z,51.01
2023-01-01T00:08:13.072Z,50.92
2023-01-01T00:09:35.425Z,51.00
2023-01-01T00:10:37.512Z,51.46
2023-01-01T00:11:40.149Z,51.19
2023-01-01T00:12:42.694Z,50.88
2023-01-01T00:13:45.324Z,51.01
2023-01-01T00:14:47.290Z,50.98
2023-01-01T00:15:50.483Z,50.91
2023-01-01T00:16:55.543Z,51.00
2023-01-01T00:17:58.586Z,50.98
2023-01-01T00:19:00.196Z,51.09
2023-01-01T00:20:02.811Z,51.25
2023-01-01T00:21:06.534Z,51.39
2023-01-01T00:22:44.227Z,51.59
2023-01-01T00:23:35.483Z,51.89
2023-01-01T00:24:37.053Z,51.96
2023-01-01T00:25:40.667Z,51.92
2023-01-01T00:26:42.454Z,52.19
2023-01-01T00:27:45.394Z,52.26
2023-01-01T00:28:47.956Z,52.48
2023-01-01T00:29:50.509Z,52.62
2023-01-01T00:30:52.281Z,52.78
2023-01-01T00:31:54.966Z,52.87
2023-01-01T00:32:57.597Z,53.16
2023-01-01T00:34:01.057Z,53.16
2023-01-01T00:35:04.324Z,53.33
2023-01-01T00:36:08.836Z,53.55
2023-01-01T00:37:14.803Z,53.63
2023-01-01T00:38:17.484Z,53.77
2023-01-01T00:39:19.078Z,53.92
2023-01-01T00:40:21.897Z,54.13
2023-01-01T00:41:25.018Z,54.24
2023-01-01T00:42:27.535Z,54.15
2023-01-01T00:43:39.354Z,54.30
2023-01-01T00:44:51.848Z,54.49
2023-01-01T00:45:53.692Z,54.32
2023-01-01T00:46:58.617Z,54.44
2023-01-01T00:48:01.233Z,54.54
2023-01-01T00:49:13.554Z,54.41
2023-01-01T00:50:24.731Z,54.54
2023-01-01T00:51:31.622Z,54.42
2023-01-01T00:52:38.714Z,54.44
2023-01-01T00:53:40.468Z,54.22
2023-01-01T00:54:44.518Z,54.38
2023-01-01T00:55:49.419Z,54.24
2023-01-01T00:56:53.502Z,54.23
2023-01-01T00:57:56.180Z,54.20
2023-01-01T00:59:00.629Z,54.00
2023-01-01T01:00:06.223Z,53.81
2023-01-01T01:01:13.141Z,53.80
2023-01-01T01:02:15.071Z,53.80
2023-01-01T01:03:28.840Z,53.63
2023-01-01T01:04:30.569Z,53.57
2023-01-01T01:05:33.881Z,53.46
2023-01-01T01:06:35.785Z,53.38
2023-01-01T01:07:40.148Z,53.39
2023-01-01T01:08:43.879Z,53.24
2023-01-01T01:09:46.757Z,53.29
2023-01-01T01:10:48.465Z,53.16
2023-01-01T01:11:51.210Z,52.86
2023-01-01T01:13:13.899Z,53.00
2023-01-01T01:14:16.656Z,52.86
2023-01-01T01:15:19.427Z,52.80
2023-01-01T01:16:24.549Z,52.54
2023-01-01T01:17:27.248Z,52.56
2023-01-01T01:18:29.841Z,52.52
2023-01-01T01:19:33.793Z,52.42
2023-01-01T01:20:51.568Z,52.17
2023-01-01T01:21:54.207Z,52.07
2023-01-01T01:22:57.114Z,51.83
2023-01-01T01:24:01.497Z,51.75
2023-01-01T01:25:03.323Z,51.68
2023-01-01T01:26:11.906Z,51.62
2023-01-01T01:27:13.551Z,51.44
2023-01-01T01:28:16.593Z,51.11
2023-01-01T01:29:18.236Z,51.07
2023-01-01T01:30:20.765Z,50.86
2023-01-01T01:31:24.280Z,50.78
2023-01-01T01:32:26.773Z,50.75
2023-01-01T01:33:28.383Z,50.75
2023-01-01T01:34:31.087Z,50.56
2023-01-01T01:35:33.079Z,50.44
2023-01-01T01:36:43.793Z,50.37
2023-01-01T01:37:45.818Z,50.44
2023-01-01T01:38:59.673Z,50.38
2023-01-01T01:40:01.799Z,50.32
2023-01-01T01:41:04.941Z,50.23
2023-01-01T01:42:06.806Z,50.09
2023-01-01T01:43:13.649Z,50.10
2023-01-01T01:44:54.971Z,50.00
2023-01-01T01:46:11.632Z,50.21
2023-01-01T01:47:15.759Z,50.23
2023-01-01T01:48:18.313Z,50.30
2023-01-01T01:49:27.530Z,50.33
2023-01-01T01:50:33.211Z,50.16
2023-01-01T01:51:39.360Z,50.31
2023-01-01T01:52:47.432Z,50.25
2023-01-01T01:53:55.382Z,50.23
2023-01-01T01:55:01.495Z,50.03
2023-01-01T01:56:07.901Z,50.03
2023-01-01T01:57:12.492Z,49.94
2023-01-01T01:58:17.758Z,49.86
2023-01-01T01:59:26.149Z,49.83
2023-01-01T02:00:27.896Z,49.92
2023-01-01T02:01:30.906Z,49.73
2023-01-01T02:02:36.501Z,50.00
2023-01-01T02:03:43.482Z,49.88
2023-01-01T02:04:55.503Z,49.76
2023-01-01T02:05:59.437Z,49.94
2023-01-01T02:07:01.386Z,49.80
2023-01-01T02:08:05.715Z,49.81
2023-01-01T02:09:08.963Z,49.81
2023-01-01T02:10:12.912Z,49.56
2023-01-01T02:11:20.177Z,49.63
2023-01-01T02:12:25.040Z,49.56
2023-01-01T02:13:26.901Z,49.62
2023-01-01T02:14:29.440Z,49.68
2023-01-01T02:15:36.776Z,49.54
2023-01-01T02:16:44.559Z,49.59
2023-01-01T02:17:58.257Z,49.61
2023-01-01T02:19:08.715Z,49.64
2023-01-01T02:20:26.515Z,49.71
2023-01-01T02:21:33.583Z,49.65
2023-01-01T02:23:02.221Z,49.70
2023-01-01T02:24:23.265Z,49.66
2023-01-01T02:25:34.958Z,49.78
2023-01-01T02:26:49.397Z,49.69
2023-01-01T02:28:12.128Z,49.65
2023-01-01T02:29:26.100Z,49.66
2023-01-01T02:30:30.634Z,49.84
2023-01-01T02:31:38.064Z,49.53
2023-01-01T02:32:46.242Z,49.43
2023-01-01T02:33:50.677Z,49.57
2023-01-01T02:34:58.165Z,49.39
2023-01-01T02:36:02.436Z,49.53
2023-01-01T02:37:09.560Z,49.46
2023-01-01T02:38:18.252Z,49.40
2023-01-01T02:39:23.888Z,49.51
2023-01-01T02:40:27.555Z,49.56
2023-01-01T02:41:34.784Z,49.41
2023-01-01T02:42:36.456Z,49.57
2023-01-01T02:43:39.511Z,49.57
2023-01-01T02:44:48.588Z,49.61
2023-01-01T02:45:51.288Z,49.86
2023-01-01T02:46:52.927Z,49.53
2023-01-01T02:47:55.460Z,49.56
2023-01-01T02:48:57.978Z,49.62
2023-01-01T02:50:09.496Z,49.66
2023-01-01T02:51:19.816Z,49.52
2023-01-01T02:52:48.233Z,49.60
2023-01-01T02:54:01.476Z,49.71
2023-01-01T02:55:12.014Z,49.77
2023-01-01T02:56:20.792Z,49.79
2023-01-01T02:57:32.232Z,50.03
2023-01-01T02:58:58.319Z,49.96
2023-01-01T03:00:24.117Z,50.09
2023-01-01T03:01:32.686Z,50.02
2023-01-01T03:02:46.634Z,50.03
2023-01-01T03:04:03.188Z,50.13
2023-01-01T03:05:12.100Z,50.43
2023-01-01T03:06:24.190Z,50.18
2023-01-01T03:07:33.161Z,50.23
2023-01-01T03:08:49.872Z,50.23
2023-01-01T03:09:59.097Z,50.22
2023-01-01T03:11:08.488Z,50.44
2023-01-01T03:12:22.354Z,50.44
2023-01-01T03:13:32.193Z,50.45
2023-01-01T03:14:50.802Z,50.46
2023-01-01T03:16:00.565Z,50.36
2023-01-01T03:17:10.595Z,50.40
2023-01-01T03:18:21.090Z,50.87
2023-01-01T03:19:26.250Z,50.64
2023-01-01T03:20:31.896Z,50.62
2023-01-01T03:21:34.678Z,50.68
2023-01-01T03:23:49.855Z,50.98
2023-01-01T03:24:58.035Z,50.87
2023-01-01T03:26:06.733Z,50.88
2023-01-01T03:27:14.721Z,50.95
2023-01-01T03:28:20.356Z,50.86
2023-01-01T03:29:25.365Z,51.05
2023-01-01T03:30:28.686Z,51.17
2023-01-01T03:31:34.687Z,50.96
2023-01-01T03:32:59.925Z,51.28
2023-01-01T03:34:07.090Z,51.08
2023-01-01T03:35:09.918Z,51.17
2023-01-01T03:36:15.528Z,51.20
2023-01-01T03:37:25.865Z,51.27
2023-01-01T03:38:32.531Z,51.34
2023-01-01T03:39:38.109Z,51.47
2023-01-01T03:40:41.626Z,51.56
2023-01-01T03:41:47.247Z,51.51
2023-01-01T03:42:52.515Z,51.39
2023-01-01T03:44:00.098Z,51.63
2023-01-01T03:45:06.091Z,51.63
2023-01-01T03:46:10.004Z,51.71
2023-01-01T03:47:15.064Z,51.67
2023-01-01T03:48:16.983Z,51.64
2023-01-01T03:49:21.334Z,51.73
2023-01-01T03:50:31.299Z,51.75
2023-01-01T03:51:51.859Z,51.56
2023-01-01T03:53:01.650Z,51.68
2023-01-01T03:54:10.170Z,51.81
2023-01-01T03:55:18.014Z,51.93
2023-01-01T03:56:27.725Z,51.90
2023-01-01T03:57:37.377Z,51.88
2023-01-01T03:58:43.553Z,52.07
2023-01-01T03:59:53.277Z,51.95
2023-01-01T04:01:02.928Z,51.93
2023-01-01T04:02:08.723Z,51.90
2023-01-01T04:03:19.505Z,51.92
2023-01-01T04:04:21.155Z,51.64
2023-01-01T04:05:25.552Z,51.90
2023-01-01T04:06:27.885Z,51.87
2023-01-01T04:07:32.083Z,51.79
2023-01-01T04:08:34.993Z,51.86
2023-01-01T04:09:41.523Z,52.01
2023-01-01T04:10:47.132Z,51.96
2023-01-01T04:12:04.179Z,51.95
2023-01-01T04:13:06.962Z,52.15
2023-01-01T04:14:09.847Z,52.08
2023-01-01T04:15:11.870Z,52.21
2023-01-01T04:16:15.967Z,52.24
2023-01-01T04:17:17.629Z,52.30
2023-01-01T04:18:21.499Z,52.20
2023-01-01T04:19:23.407Z,52.10
2023-01-01T04:20:26.753Z,52.29
2023-01-01T04:21:28.671Z,52.17
2023-01-01T04:22:31.161Z,52.26
2023-01-01T04:23:32.666Z,52.32
2023-01-01T04:24:35.166Z,52.34
2023-01-01T04:25:36.754Z,52.26
2023-01-01T04:26:39.207Z,52.39
2023-01-01T04:27:41.265Z,52.59
2023-01-01T04:28:44.289Z,52.42
2023-01-01T04:29:45.799Z,52.42
2023-01-01T04:30:48.398Z,52.54
2023-01-01T04:31:50.488Z,52.50
2023-01-01T04:32:52.991Z,52.64
2023-01-01T04:33:55.867Z,52.50
2023-01-01T04:34:58.333Z,52.57
2023-01-01T04:36:03.529Z,52.56
2023-01-01T04:37:11.378Z,52.63
2023-01-01T04:38:14.906Z,52.64
2023-01-01T04:39:17.422Z,52.78
2023-01-01T04:40:19.894Z,52.96
2023-01-01T04:41:21.441Z,52.68
2023-01-01T04:42:23.947Z,52.95
2023-01-01T04:43:25.503Z,52.97
2023-01-01T04:44:27.984Z,52.98
2023-01-01T04:45:30.653Z,53.32
2023-01-01T04:46:33.287Z,53.33
2023-01-01T04:47:34.827Z,53.22
2023-01-01T04:48:37.332Z,53.28
2023-01-01T04:49:40.228Z,53.32
2023-01-01T04:50:42.701Z,53.36
2023-01-01T04:51:45.220Z,53.54
2023-01-01T04:52:51.101Z,53.53
2023-01-01T04:53:53.611Z,53.45
2023-01-01T04:54:56.084Z,53.58
2023-01-01T04:56:03.571Z,53.67
2023-01-01T04:57:06.532Z,53.74
2023-01-01T04:58:08.228Z,53.76
2023-01-01T04:59:10.916Z,53.75
2023-01-01T05:00:15.417Z,53.85
2023-01-01T05:01:21.786Z,53.85
2023-01-01T05:02:28.845Z,53.91
2023-01-01T05:03:30.650Z,53.92
2023-01-01T05:04:33.254Z,53.97
2023-01-01T05:05:44.418Z,54.11
2023-01-01T05:06:53.724Z,54.27
2023-01-01T05:07:55.218Z,54.26
2023-01-01T05:08:59.466Z,54.29
2023-01-01T05:10:00.995Z,54.18
2023-01-01T05:11:04.257Z,54.31
2023-01-01T05:12:06.459Z,54.44
2023-01-01T05:13:09.780Z,54.50
2023-01-01T05:14:11.417Z,54.31
2023-01-01T05:15:13.898Z,54.44
2023-01-01T05:16:17.261Z,54.36
2023-01-01T05:17:19.758Z,54.33
2023-01-01T05:18:21.568Z,54.69
2023-01-01T05:19:24.045Z,54.16
2023-01-01T05:20:25.579Z,54.39
2023-01-01T05:21:32.460Z,54.38
2023-01-01T05:22:34.360Z,54.43
2023-01-01T05:23:37.029Z,54.35
2023-01-01T05:24:38.570Z,54.54
2023-01-01T05:25:41.030Z,54.48
2023-01-01T05:26:44.758Z,54.57
2023-01-01T05:27:47.234Z,54.44
2023-01-01T05:28:49.804Z,54.66
2023-01-01T05:29:52.263Z,54.58
2023-01-01T05:30:54.112Z,54.43
2023-01-01T05:31:56.872Z,54.51
2023-01-01T05:32:58.384Z,54.31
2023-01-01T05:35:01.847Z,54.64
2023-01-01T05:36:06.413Z,54.54
2023-01-01T05:37:09.256Z,54.51
2023-01-01T05:38:11.869Z,54.42
2023-01-01T05:39:13.461Z,54.55
2023-01-01T05:40:16.088Z,54.51
2023-01-01T05:41:19.402Z,54.37
2023-01-01T05:42:22.244Z,54.60
2023-01-01T05:43:29.057Z,54.54
2023-01-01T05:44:33.173Z,54.43
2023-01-01T05:45:35.693Z,54.61
2023-01-01T05:46:48.179Z,54.50
2023-01-01T05:47:50.134Z,54.55
2023-01-01T05:49:00.043Z,54.67
2023-01-01T05:51:05.314Z,54.77
2023-01-01T05:52:06.804Z,54.83
2023-01-01T05:53:10.636Z,54.80
2023-01-01T05:55:13.819Z,54.91
2023-01-01T05:56:16.398Z,55.11
2023-01-01T05:57:18.859Z,55.25
2023-01-01T05:58:21.099Z,55.46
2023-01-01T05:59:23.558Z,55.70
2023-01-01T06:00:25.114Z,55.86
2023-01-01T06:01:30.224Z,55.85
2023-01-01T06:02:31.834Z,55.78
2023-01-01T06:03:34.433Z,56.14
2023-01-01T06:04:36.039Z,55.85
2023-01-01T06:05:38.552Z,56.00
2023-01-01T06:06:40.127Z,56.10
2023-01-01T06:07:48.116Z,56.25
2023-01-01T06:08:52.735Z,55.95
2023-01-01T06:09:55.219Z,56.06
2023-01-01T06:10:58.817Z,56.18
2023-01-01T06:12:01.356Z,56.18
2023-01-01T06:13:06.668Z,56.31
2023-01-01T06:14:12.074Z,56.34
2023-01-01T06:15:13.614Z,56.05
2023-01-01T06:16:16.184Z,56.03
2023-01-01T06:17:17.776Z,56.20
2023-01-01T06:18:20.251Z,56.36
2023-01-01T06:19:22.706Z,56.38
2023-01-01T06:20:24.508Z,56.17
2023-01-01T06:21:28.508Z,56.17
2023-01-01T06:22:30.001Z,56.35
2023-01-01T06:23:32.533Z,56.21
2023-01-01T06:24:41.938Z,56.33
2023-01-01T06:25:43.829Z,56.30
2023-01-01T06:26:59.041Z,56.49
2023-01-01T06:28:01.154Z,56.52
2023-01-01T06:29:04.672Z,56.50
2023-01-01T06:30:08.564Z,56.47
2023-01-01T06:31:13.954Z,56.63
2023-01-01T06:32:17.415Z,56.54
2023-01-01T06:33:19.885Z,56.79
2023-01-01T06:34:22.344Z,56.67
2023-01-01T06:35:23.956Z,56.61
2023-01-01T06:36:27.332Z,56.72
2023-01-01T06:37:29.905Z,56.74
2023-01-01T06:38:32.402Z,56.56
2023-01-01T06:39:34.967Z,56.65
2023-01-01T06:40:37.814Z,56.66
2023-01-01T06:41:40.249Z,56.67
2023-01-01T06:42:41.786Z,56.92
2023-01-01T06:43:45.124Z,56.78
2023-01-01T06:44:46.696Z,56.81
2023-01-01T06:45:49.207Z,56.97
2023-01-01T06:46:50.771Z,56.81
2023-01-01T06:47:53.228Z,56.86
2023-01-01T06:48:56.299Z,56.84
2023-01-01T06:49:58.798Z,56.99
2023-01-01T06:51:05.849Z,56.96
2023-01-01T06:52:08.322Z,56.96
2023-01-01T06:53:09.810Z,57.13
2023-01-01T06:54:12.545Z,56.94
2023-01-01T06:55:14.047Z,57.12
2023-01-01T06:56:18.622Z,57.19
2023-01-01T06:57:20.155Z,57.29
2023-01-01T06:58:22.940Z,57.42
2023-01-01T06:59:24.501Z,57.46
2023-01-01T07:00:26.986Z,57.50
2023-01-01T07:01:31.341Z,57.45
2023-01-01T07:02:33.277Z,57.53
2023-01-01T07:03:36.941Z,57.63
2023-01-01T07:04:38.841Z,57.74
2023-01-01T07:05:41.441Z,57.60
2023-01-01T07:06:43.667Z,57.80
2023-01-01T07:07:51.652Z,57.64
2023-01-01T07:09:05.136Z,57.72
2023-01-01T07:10:08.823Z,57.71
2023-01-01T07:11:12.093Z,57.75
2023-01-01T07:12:16.356Z,57.69
2023-01-01T07:13:18.214Z,57.87
2023-01-01T07:14:21.131Z,57.81
2023-01-01T07:15:23.705Z,57.74
2023-01-01T07:16:36.270Z,58.06
2023-01-01T07:17:39.485Z,57.87
2023-01-01T07:18:41.623Z,57.94
2023-01-01T07:19:44.065Z,58.17
2023-01-01T07:20:49.600Z,58.05
2023-01-01T07:21:54.625Z,57.90
2023-01-01T07:22:56.195Z,58.05
2023-01-01T07:24:00.080Z,58.12
2023-01-01T07:25:01.635Z,57.93
2023-01-01T07:26:04.178Z,58.26
2023-01-01T07:27:07.631Z,58.10
2023-01-01T07:28:11.198Z,58.25
2023-01-01T07:29:13.931Z,58.36
2023-01-01T07:30:15.600Z,58.56
2023-01-01T07:31:18.154Z,58.53
2023-01-01T07:32:20.689Z,58.59
2023-01-01T07:33:24.160Z,58.49
2023-01-01T07:34:26.614Z,58.61
2023-01-01T07:35:28.161Z,58.69
2023-01-01T07:36:30.648Z,58.79
2023-01-01T07:37:33.481Z,58.93
2023-01-01T07:38:34.984Z,59.37
2023-01-01T07:39:37.448Z,59.36
2023-01-01T07:40:39.372Z,59.60
2023-01-01T07:41:42.434Z,59.85
2023-01-01T07:42:44.029Z,59.99
2023-01-01T07:43:47.855Z,60.18
2023-01-01T07:44:50.325Z,60.54
2023-01-01T07:45:51.974Z,60.83
2023-01-01T07:47:02.880Z,60.72
2023-01-01T07:48:04.648Z,60.84
2023-01-01T07:49:07.142Z,61.12
2023-01-01T07:50:16.435Z,61.23
2023-01-01T07:51:18.911Z,61.31
2023-01-01T07:52:21.493Z,61.59
2023-01-01T07:53:23.057Z,61.62
2023-01-01T07:54:25.842Z,61.80
2023-01-01T07:55:27.579Z,61.89
2023-01-01T07:56:40.041Z,62.09
2023-01-01T07:57:42.775Z,61.80
2023-01-01T07:58:45.262Z,62.16
2023-01-01T07:59:48.606Z,62.19
2023-01-01T08:00:51.506Z,62.01
2023-01-01T08:01:53.835Z,62.39
2023-01-01T08:02:59.527Z,62.43
2023-01-01T08:04:01.118Z,62.53
2023-01-01T08:05:03.959Z,62.49
2023-01-01T08:06:08.835Z,62.46
2023-01-01T08:07:11.309Z,62.69
2023-01-01T08:08:12.860Z,62.64
2023-01-01T08:09:15.330Z,62.43
2023-01-01T08:10:19.967Z,62.64
2023-01-01T08:11:22.429Z,62.62
2023-01-01T08:12:25.079Z,62.70
2023-01-01T08:13:26.613Z,62.65
2023-01-01T08:14:29.043Z,62.54
2023-01-01T08:15:32.592Z,62.66
2023-01-01T08:16:35.147Z,62.69
2023-01-01T08:17:39.708Z,62.72
2023-01-01T08:18:47.802Z,62.85
2023-01-01T08:19:50.335Z,63.03
2023-01-01T08:20:53.117Z,62.76
2023-01-01T08:21:55.615Z,63.01
2023-01-01T08:23:01.421Z,63.06
2023-01-01T08:24:07.638Z,62.95
2023-01-01T08:25:09.519Z,62.96
2023-01-01T08:26:15.193Z,62.97
2023-01-01T08:27:18.372Z,63.01
2023-01-01T08:28:20.946Z,62.92
2023-01-01T08:29:22.497Z,63.19
2023-01-01T08:30:25.241Z,63.10
2023-01-01T08:31:28.278Z,63.19
2023-01-01T08:32:31.017Z,63.10
2023-01-01T08:33:34.421Z,63.14
2023-01-01T08:34:35.922Z,63.34
2023-01-01T08:35:41.526Z,63.37
2023-01-01T08:36:44.221Z,63.35
2023-01-01T08:37:56.728Z,63.17
2023-01-01T08:38:58.937Z,63.22
2023-01-01T08:40:01.474Z,63.36
2023-01-01T08:41:05.497Z,63.53
2023-01-01T08:42:12.232Z,63.38
2023-01-01T08:43:15.808Z,63.58
2023-01-01T08:44:18.906Z,63.54
2023-01-01T08:45:20.823Z,63.41
2023-01-01T08:46:23.439Z,63.46
2023-01-01T08:47:26.764Z,63.60
2023-01-01T08:48:31.066Z,63.50
2023-01-01T08:49:33.675Z,63.42
2023-01-01T08:50:35.196Z,63.57
2023-01-01T08:51:37.653Z,63.43
2023-01-01T08:52:39.197Z,63.64
2023-01-01T08:53:46.893Z,63.65
2023-01-01T08:54:52.975Z,63.64
2023-01-01T08:55:58.159Z,63.67
2023-01-01T08:57:00.617Z,63.48
2023-01-01T08:58:06.629Z,63.71
2023-01-01T08:59:09.109Z,63.73
2023-01-01T09:00:13.503Z,63.63
2023-01-01T09:01:18.098Z,63.80
2023-01-01T09:02:20.838Z,63.81
2023-01-01T09:03:23.947Z,63.82
2023-01-01T09:04:26.675Z,63.92
2023-01-01T09:05:28.268Z,63.68
2023-01-01T09:06:30.750Z,63.71
2023-01-01T09:07:33.287Z,64.01
2023-01-01T09:08:35.800Z,63.96
2023-01-01T09:09:37.348Z,64.08
2023-01-01T09:10:40.056Z,64.02
2023-01-01T09:11:51.843Z,64.05
2023-01-01T09:12:54.347Z,64.04
2023-01-01T09:13:56.053Z,63.99
2023-01-01T09:14:58.561Z,63.88
2023-01-01T09:16:00.467Z,64.13
2023-01-01T09:17:09.242Z,63.60
2023-01-01T09:18:18.453Z,64.05
2023-01-01T09:19:32.416Z,63.97
2023-01-01T09:20:36.407Z,64.03
2023-01-01T09:21:37.993Z,64.01
2023-01-01T09:22:40.516Z,64.01
2023-01-01T09:23:42.999Z,63.95
2023-01-01T09:24:45.467Z,64.12
2023-01-01T09:25:48.039Z,63.88
2023-01-01T09:26:50.721Z,63.91
2023-01-01T09:27:58.759Z,63.98
2023-01-01T09:29:01.704Z,63.94
2023-01-01T09:30:06.671Z,64.12
2023-01-01T09:31:08.852Z,64.04
2023-01-01T09:32:11.782Z,63.91
2023-01-01T09:33:14.713Z,63.97
2023-01-01T09:34:18.015Z,64.01
2023-01-01T09:35:22.051Z,63.89
2023-01-01T09:36:28.620Z,64.02
2023-01-01T09:37:31.519Z,63.89
2023-01-01T09:38:33.023Z,64.08
2023-01-01T09:39:35.499Z,63.88
2023-01-01T09:40:51.382Z,64.01
2023-01-01T09:42:05.816Z,64.13
2023-01-01T09:43:21.288Z,64.03
2023-01-01T09:44:39.755Z,64.00
2023-01-01T09:45:55.961Z,64.10
2023-01-01T09:47:00.850Z,64.05
2023-01-01T09:48:07.067Z,64.26
2023-01-01T09:49:17.346Z,64.12
2023-01-01T09:50:23.777Z,64.29
2023-01-01T09:51:29.340Z,64.36
2023-01-01T09:52:44.940Z,64.19
2023-01-01T09:53:54.622Z,64.34
2023-01-01T09:54:58.999Z,64.22
2023-01-01T09:56:03.383Z,64.32
2023-01-01T09:57:14.850Z,64.30
2023-01-01T09:58:25.924Z,64.50
2023-01-01T09:59:29.125Z,64.38
2023-01-01T10:00:35.649Z,64.23
2023-01-01T10:01:46.379Z,64.30
2023-01-01T10:03:20.219Z,64.45
2023-01-01T10:04:41.275Z,64.38
2023-01-01T10:05:55.888Z,64.29
2023-01-01T10:07:04.781Z,64.45
2023-01-01T10:08:11.244Z,64.60
2023-01-01T10:09:21.913Z,64.55
2023-01-01T10:10:35.489Z,64.46
2023-01-01T10:11:47.118Z,64.66
2023-01-01T10:13:00.577Z,64.46
2023-01-01T10:14:18.998Z,64.54
2023-01-01T10:15:25.189Z,64.84
2023-01-01T10:16:34.245Z,64.67
2023-01-01T10:17:42.258Z,64.65
2023-01-01T10:18:46.847Z,64.68
2023-01-01T10:19:52.668Z,64.63
2023-01-01T10:21:01.720Z,64.63
2023-01-01T10:22:08.606Z,64.69
2023-01-01T10:23:18.075Z,64.57
2023-01-01T10:24:35.936Z,64.77
2023-01-01T10:25:41.189Z,64.58
2023-01-01T10:26:42.737Z,64.65
2023-01-01T10:27:53.849Z,64.65
2023-01-01T10:29:03.193Z,64.63
2023-01-01T10:30:14.537Z,64.38
2023-01-01T10:31:18.060Z,64.49
2023-01-01T10:32:26.081Z,64.51
2023-01-01T10:33:28.665Z,64.53
2023-01-01T10:34:32.207Z,64.55
2023-01-01T10:35:36.762Z,64.40
2023-01-01T10:36:40.710Z,64.68
2023-01-01T10:37:43.845Z,64.32
2023-01-01T10:38:46.960Z,64.26
2023-01-01T10:39:49.010Z,64.29
2023-01-01T10:40:52.612Z,64.41
2023-01-01T10:41:55.123Z,64.39
2023-01-01T10:43:01.173Z,64.49
2023-01-01T10:44:03.882Z,64.29
2023-01-01T10:45:18.816Z,64.56
2023-01-01T10:46:31.554Z,64.48
2023-01-01T10:47:34.687Z,64.32
2023-01-01T10:49:06.804Z,64.42
2023-01-01T10:50:10.241Z,64.54
2023-01-01T10:51:24.764Z,64.43
2023-01-01T10:52:36.347Z,64.22
2023-01-01T10:53:41.890Z,64.40
2023-01-01T10:54:44.772Z,64.30
2023-01-01T10:55:49.915Z,64.03
2023-01-01T10:56:52.462Z,64.45
2023-01-01T10:57:54.961Z,64.21
2023-01-01T10:58:58.638Z,64.20
2023-01-01T11:00:23.196Z,64.16
2023-01-01T11:01:27.529Z,64.30
2023-01-01T11:02:29.266Z,64.13
2023-01-01T11:03:32.759Z,64.11
2023-01-01T11:04:35.660Z,63.92
2023-01-01T11:05:37.547Z,64.16
2023-01-01T11:06:42.359Z,64.11
2023-01-01T11:07:46.899Z,63.82
2023-01-01T11:08:50.600Z,64.08
2023-01-01T11:10:03.795Z,63.87
2023-01-01T11:11:07.206Z,63.85
2023-01-01T11:12:54.646Z,64.11
2023-01-01T11:13:42.441Z,64.09
2023-01-01T11:14:51.103Z,63.81
2023-01-01T11:15:52.959Z,63.99
2023-01-01T11:16:56.890Z,63.74
2023-01-01T11:18:05.322Z,63.67
2023-01-01T11:19:09.668Z,63.75
2023-01-01T11:20:19.386Z,63.83
2023-01-01T11:21:23.823Z,63.68
2023-01-01T11:22:41.812Z,63.49
2023-01-01T11:23:45.712Z,63.54
2023-01-01T11:25:01.295Z,63.59
2023-01-01T11:26:07.468Z,63.68
2023-01-01T11:27:18.993Z,63.59
2023-01-01T11:28:21.796Z,63.65
2023-01-01T11:29:28.265Z,63.72
2023-01-01T11:30:31.452Z,63.78
2023-01-01T11:31:40.614Z,63.67
2023-01-01T11:32:42.259Z,63.64
2023-01-01T11:33:47.599Z,63.62
2023-01-01T11:35:05.549Z,63.60
2023-01-01T11:36:26.439Z,63.54
2023-01-01T11:37:40.327Z,63.67
2023-01-01T11:38:42.837Z,63.62
2023-01-01T11:39:49.121Z,63.84
2023-01-01T11:40:54.787Z,63.55
2023-01-01T11:41:58.978Z,63.72
2023-01-01T11:43:04.623Z,63.57
2023-01-01T11:44:13.160Z,63.47
2023-01-01T11:45:37.164Z,63.50
2023-01-01T11:46:50.440Z,63.38
2023-01-01T11:47:59.665Z,63.46
2023-01-01T11:49:03.098Z,63.67
2023-01-01T11:50:20.454Z,63.51
2023-01-01T11:51:33.869Z,63.53
2023-01-01T11:52:40.489Z,63.59
2023-01-01T11:53:43.923Z,63.38
2023-01-01T11:54:47.926Z,63.57
2023-01-01T11:55:55.420Z,63.44
2023-01-01T11:57:03.442Z,63.51
2023-01-01T11:58:25.869Z,63.66
2023-01-01T11:59:33.226Z,63.39
2023-01-01T12:00:36.565Z,63.29
2023-01-01T12:01:46.464Z,63.24
2023-01-01T12:02:55.588Z,63.25
2023-01-01T12:04:03.299Z,63.30
2023-01-01T12:05:16.377Z,63.36
2023-01-01T12:06:24.563Z,63.27
2023-01-01T12:07:30.950Z,63.12
2023-01-01T12:08:38.977Z,63.00
2023-01-01T12:09:47.225Z,63.06
2023-01-01T12:10:55.228Z,63.02
2023-01-01T12:12:04.991Z,63.11
2023-01-01T12:13:15.183Z,62.93
2023-01-01T12:14:25.989Z,62.84
2023-01-01T12:15:36.686Z,62.84
2023-01-01T12:16:51.317Z,62.78
2023-01-01T12:18:02.677Z,62.76
2023-01-01T12:19:12.429Z,62.79
2023-01-01T12:20:21.913Z,62.91
2023-01-01T12:21:27.991Z,62.94
2023-01-01T12:22:30.540Z,62.80
2023-01-01T12:23:36.520Z,62.68
2023-01-01T12:24:39.364Z,62.87
2023-01-01T12:26:02.918Z,62.83
2023-01-01T12:27:16.341Z,62.75
2023-01-01T12:28:32.059Z,62.76
2023-01-01T12:29:51.948Z,62.56
2023-01-01T12:31:02.784Z,62.91
2023-01-01T12:32:10.093Z,62.63
2023-01-01T12:33:32.971Z,62.56
2023-01-01T12:34:42.318Z,62.74
2023-01-01T12:36:01.767Z,62.69
2023-01-01T12:37:11.726Z,62.55
2023-01-01T12:38:31.426Z,62.54
2023-01-01T12:40:14.998Z,62.64
2023-01-01T12:41:32.441Z,62.73
2023-01-01T12:42:47.497Z,62.66
2023-01-01T12:43:57.125Z,62.81
2023-01-01T12:45:18.413Z,62.88
2023-01-01T12:46:45.712Z,62.74
2023-01-01T12:48:00.763Z,62.54
2023-01-01T12:49:24.332Z,62.55
2023-01-01T12:50:36.635Z,62.60
2023-01-01T12:51:50.591Z,62.78
2023-01-01T12:53:04.843Z,62.70
2023-01-01T12:54:39.827Z,62.54
2023-01-01T12:56:04.940Z,62.74
2023-01-01T12:57:15.866Z,62.71
2023-01-01T12:58:25.563Z,62.67
2023-01-01T12:59:32.747Z,62.72
2023-01-01T13:00:54.730Z,62.64
2023-01-01T13:01:59.512Z,62.50
2023-01-01T13:03:19.801Z,62.56
2023-01-01T13:04:23.992Z,62.46
2023-01-01T13:05:32.662Z,62.58
2023-01-01T13:06:40.787Z,62.31
2023-01-01T13:07:47.853Z,62.46
2023-01-01T13:08:53.086Z,62.38
2023-01-01T13:09:56.680Z,62.25
2023-01-01T13:11:01.112Z,62.36
2023-01-01T13:12:07.724Z,62.40
2023-01-01T13:13:13.978Z,62.33
2023-01-01T13:14:16.943Z,62.41
2023-01-01T13:15:46.693Z,62.22
2023-01-01T13:16:52.702Z,62.22
2023-01-01T13:17:54.351Z,62.29
2023-01-01T13:19:02.321Z,62.40
2023-01-01T13:20:18.219Z,62.21
2023-01-01T13:21:25.699Z,62.44
2023-01-01T13:22:41.946Z,62.43
2023-01-01T13:23:51.846Z,62.26
2023-01-01T13:25:05.635Z,62.42
2023-01-01T13:26:40.288Z,62.47
2023-01-01T13:28:05.322Z,62.39
2023-01-01T13:29:32.204Z,62.43
2023-01-01T13:30:48.058Z,62.40
2023-01-01T13:32:05.013Z,62.34
2023-01-01T13:33:26.875Z,62.22
2023-01-01T13:34:35.047Z,62.19
2023-01-01T13:35:38.695Z,62.30
2023-01-01T13:36:40.666Z,62.33
2023-01-01T13:37:53.175Z,62.40
2023-01-01T13:38:56.989Z,62.13
2023-01-01T13:40:00.943Z,62.41
2023-01-01T13:41:03.434Z,62.21
2023-01-01T13:42:41.759Z,62.19
2023-01-01T13:43:44.279Z,62.21
2023-01-01T13:44:57.194Z,62.08
2023-01-01T13:46:13.623Z,62.10
2023-01-01T13:47:34.962Z,62.25
2023-01-01T13:49:16.376Z,62.09
2023-01-01T13:50:25.147Z,62.41
2023-01-01T13:52:06.438Z,62.39
2023-01-01T13:53:26.557Z,62.26
2023-01-01T13:54:51.053Z,62.33
2023-01-01T13:56:14.476Z,62.24
2023-01-01T13:57:37.466Z,62.20
2023-01-01T13:59:21.563Z,62.14
2023-01-01T14:00:29.210Z,62.35
2023-01-01T14:01:43.093Z,62.11
2023-01-01T14:02:49.218Z,62.11
2023-01-01T14:03:54.750Z,62.46
2023-01-01T14:05:01.424Z,62.38
2023-01-01T14:06:09.172Z,62.25
2023-01-01T14:07:49.676Z,62.28
2023-01-01T14:08:43.311Z,62.27
2023-01-01T14:09:44.910Z,62.19
2023-01-01T14:10:51.073Z,62.12
2023-01-01T14:11:53.580Z,62.25
2023-01-01T14:13:02.255Z,62.21
2023-01-01T14:14:03.769Z,61.89
2023-01-01T14:15:16.020Z,62.05
2023-01-01T14:16:20.037Z,62.21
2023-01-01T14:17:24.548Z,61.91
2023-01-01T14:18:34.507Z,61.96
2023-01-01T14:19:41.410Z,61.84
2023-01-01T14:20:46.016Z,61.70
2023-01-01T14:21:59.464Z,61.93
2023-01-01T14:23:12.844Z,61.74
2023-01-01T14:24:26.514Z,61.70